sensor_id;sensor_type;location;lat;lon;timestamp;temperature;humidity
7240;DHT22;3661;53.288;10.458;2024-02-16T00:01:38;11.00;99.90
7240;DHT22;3661;53.288;10.458;2024-02-16T00:04:10;11.10;99.90
7240;DHT22;3661;53.288;10.458;2024-02-16T00:06:44;11.00;99.90
7240;DHT22;3661;53.288;10.458;2024-02-16T00:09:16;11.10;99.90
7240;DHT22;3661;53.288;10.458;2024-02-16T00:11:48;11.00;99.90
7240;DHT22;3661;53.288;10.458;2024-02-16T00:14:23;11.00;99.90
7240;DHT22;3661;53.288;10.458;2024-02-16T00:16:55;11.00;99.90
7240;DHT22;3661;53.288;10.458;2024-02-16T00:19:27;11.00;99.90
7240;DHT22;3661;53.288;10.458;2024-02-16T00:22:01;11.00;99.90
7240;DHT22;3661;53.288;10.458;2024-02-16T00:24:33;11.00;99.90
7240;DHT22;3661;53.288;10.458;2024-02-16T00:27:05;10.90;99.90
7240;DHT22;3661;53.288;10.458;2024-02-16T00:29:37;10.90;99.90
7240;DHT22;3661;53.288;10.458;2024-02-16T00:32:09;10.90;99.90
7240;DHT22;3661;53.288;10.458;2024-02-16T00:34:43;10.90;99.90
7240;DHT22;3661;53.288;10.458;2024-02-16T00:37:17;10.90;99.90
7240;DHT22;3661;53.288;10.458;2024-02-16T00:39:49;10.90;99.90
7240;DHT22;3661;53.288;10.458;2024-02-16T00:42:21;10.90;99.90
7240;DHT22;3661;53.288;10.458;2024-02-16T00:44:53;10.80;99.90
7240;DHT22;3661;53.288;10.458;2024-02-16T00:47:25;10.90;99.90
7240;DHT22;3661;53.288;10.458;2024-02-16T00:49:58;10.80;99.90
7240;DHT22;3661;53.288;10.458;2024-02-16T00:52:32;10.80;99.90
7240;DHT22;3661;53.288;10.458;2024-02-16T00:55:04;10.80;99.90
7240;DHT22;3661;53.288;10.458;2024-02-16T00:57:37;10.80;99.90
7240;DHT22;3661;53.288;10.458;2024-02-16T01:00:13;10.80;99.90
7240;DHT22;3661;53.288;10.458;2024-02-16T01:02:46;10.80;99.90
7240;DHT22;3661;53.288;10.458;2024-02-16T01:05:18;10.80;99.90
7240;DHT22;3661;53.288;10.458;2024-02-16T01:07:52;10.80;99.90
7240;DHT22;3661;53.288;10.458;2024-02-16T01:10:24;10.80;99.90
7240;DHT22;3661;53.288;10.458;2024-02-16T01:12:56;10.80;99.90
7240;DHT22;3661;53.288;10.458;2024-02-16T01:15:28;10.80;99.90
7240;DHT22;3661;53.288;10.458;2024-02-16T01:18:01;10.70;99.90
7240;DHT22;3661;53.288;10.458;2024-02-16T01:20:33;10.80;99.90
7240;DHT22;3661;53.288;10.458;2024-02-16T01:23:08;10.80;99.90
7240;DHT22;3661;53.288;10.458;2024-02-16T01:25:40;10.70;99.90
7240;DHT22;3661;53.288;10.458;2024-02-16T01:28:13;10.70;99.90
7240;DHT22;3661;53.288;10.458;2024-02-16T01:30:45;10.70;99.90
7240;DHT22;3661;53.288;10.458;2024-02-16T01:33:17;10.70;99.90
7240;DHT22;3661;53.288;10.458;2024-02-16T01:35:50;10.70;99.90
7240;DHT22;3661;53.288;10.458;2024-02-16T01:38:23;10.70;99.90
7240;DHT22;3661;53.288;10.458;2024-02-16T01:40:56;10.70;99.90
7240;DHT22;3661;53.288;10.458;2024-02-16T01:43:28;10.70;99.90
7240;DHT22;3661;53.288;10.458;2024-02-16T01:46:00;10.70;99.90
7240;DHT22;3661;53.288;10.458;2024-02-16T01:48:32;10.70;99.90
7240;DHT22;3661;53.288;10.458;2024-02-16T01:51:06;10.70;99.90
7240;DHT22;3661;53.288;10.458;2024-02-16T01:53:40;10.60;99.90
7240;DHT22;3661;53.288;10.458;2024-02-16T01:56:13;10.60;99.90
7240;DHT22;3661;53.288;10.458;2024-02-16T01:58:45;10.60;99.90
7240;DHT22;3661;53.288;10.458;2024-02-16T02:01:17;10.60;99.90
7240;DHT22;3661;53.288;10.458;2024-02-16T02:03:49;10.60;99.90
7240;DHT22;3661;53.288;10.458;2024-02-16T02:06:21;10.60;99.90
7240;DHT22;3661;53.288;10.458;2024-02-16T02:08:55;10.60;99.90
7240;DHT22;3661;53.288;10.458;2024-02-16T02:11:27;10.60;99.90
7240;DHT22;3661;53.288;10.458;2024-02-16T02:14:00;10.60;99.90
7240;DHT22;3661;53.288;10.458;2024-02-16T02:16:32;10.50;99.90
7240;DHT22;3661;53.288;10.458;2024-02-16T02:19:04;10.50;99.90
7240;DHT22;3661;53.288;10.458;2024-02-16T02:21:36;10.50;99.90
7240;DHT22;3661;53.288;10.458;2024-02-16T02:24:09;10.50;99.90
7240;DHT22;3661;53.288;10.458;2024-02-16T02:26:43;10.50;99.90
7240;DHT22;3661;53.288;10.458;2024-02-16T02:29:15;10.40;99.90
7240;DHT22;3661;53.288;10.458;2024-02-16T02:31:47;10.40;99.90
7240;DHT22;3661;53.288;10.458;2024-02-16T02:34:19;10.40;99.90
7240;DHT22;3661;53.288;10.458;2024-02-16T02:36:51;10.40;99.90
7240;DHT22;3661;53.288;10.458;2024-02-16T02:39:25;10.40;99.90
7240;DHT22;3661;53.288;10.458;2024-02-16T02:41:57;10.40;99.90
7240;DHT22;3661;53.288;10.458;2024-02-16T02:44:30;10.30;99.90
7240;DHT22;3661;53.288;10.458;2024-02-16T02:47:02;10.30;99.90
7240;DHT22;3661;53.288;10.458;2024-02-16T02:49:34;10.30;99.90
7240;DHT22;3661;53.288;10.458;2024-02-16T02:52:08;10.30;99.90
7240;DHT22;3661;53.288;10.458;2024-02-16T02:54:42;10.30;99.90
7240;DHT22;3661;53.288;10.458;2024-02-16T02:57:14;10.30;99.90
7240;DHT22;3661;53.288;10.458;2024-02-16T02:59:48;10.30;99.90
7240;DHT22;3661;53.288;10.458;2024-02-16T03:02:20;10.30;99.90
7240;DHT22;3661;53.288;10.458;2024-02-16T03:04:52;10.30;99.90
7240;DHT22;3661;53.288;10.458;2024-02-16T03:07:25;10.30;99.90
7240;DHT22;3661;53.288;10.458;2024-02-16T03:09:59;10.30;99.90
7240;DHT22;3661;53.288;10.458;2024-02-16T03:12:32;10.20;99.90
7240;DHT22;3661;53.288;10.458;2024-02-16T03:15:05;10.20;99.90
7240;DHT22;3661;53.288;10.458;2024-02-16T03:17:37;10.20;99.90
7240;DHT22;3661;53.288;10.458;2024-02-16T03:20:10;10.20;99.90
7240;DHT22;3661;53.288;10.458;2024-02-16T03:22:43;10.20;99.90
7240;DHT22;3661;53.288;10.458;2024-02-16T03:25:18;10.20;99.90
7240;DHT22;3661;53.288;10.458;2024-02-16T03:27:50;10.20;99.90
7240;DHT22;3661;53.288;10.458;2024-02-16T03:30:23;10.20;99.90
7240;DHT22;3661;53.288;10.458;2024-02-16T03:32:56;10.20;99.90
7240;DHT22;3661;53.288;10.458;2024-02-16T03:35:28;10.20;99.90
7240;DHT22;3661;53.288;10.458;2024-02-16T03:38:00;10.20;99.90
7240;DHT22;3661;53.288;10.458;2024-02-16T03:40:34;10.10;99.90
7240;DHT22;3661;53.288;10.458;2024-02-16T03:43:06;10.10;99.90
7240;DHT22;3661;53.288;10.458;2024-02-16T03:45:38;10.20;99.90
7240;DHT22;3661;53.288;10.458;2024-02-16T03:48:10;10.10;99.90
7240;DHT22;3661;53.288;10.458;2024-02-16T03:50:42;10.10;99.90
7240;DHT22;3661;53.288;10.458;2024-02-16T03:53:14;10.10;99.90
7240;DHT22;3661;53.288;10.458;2024-02-16T03:55:48;10.10;99.90
7240;DHT22;3661;53.288;10.458;2024-02-16T03:58:22;10.10;99.90
7240;DHT22;3661;53.288;10.458;2024-02-16T04:00:54;10.10;99.90
7240;DHT22;3661;53.288;10.458;2024-02-16T04:03:26;10.10;99.90
7240;DHT22;3661;53.288;10.458;2024-02-16T04:05:58;10.10;99.90
7240;DHT22;3661;53.288;10.458;2024-02-16T04:08:32;10.10;99.90
7240;DHT22;3661;53.288;10.458;2024-02-16T04:11:05;10.10;99.90
7240;DHT22;3661;53.288;10.458;2024-02-16T04:13:38;10.10;99.90
7240;DHT22;3661;53.288;10.458;2024-02-16T04:16:10;10.10;99.90
7240;DHT22;3661;53.288;10.458;2024-02-16T04:18:42;10.10;99.90
7240;DHT22;3661;53.288;10.458;2024-02-16T04:21:14;10.10;99.90
7240;DHT22;3661;53.288;10.458;2024-02-16T04:23:46;10.10;99.90
7240;DHT22;3661;53.288;10.458;2024-02-16T04:26:19;10.10;99.90
7240;DHT22;3661;53.288;10.458;2024-02-16T04:28:52;10.10;99.90
7240;DHT22;3661;53.288;10.458;2024-02-16T04:31:24;10.10;99.90
7240;DHT22;3661;53.288;10.458;2024-02-16T04:33:56;10.00;99.90
7240;DHT22;3661;53.288;10.458;2024-02-16T04:36:28;10.10;99.90
7240;DHT22;3661;53.288;10.458;2024-02-16T04:39:00;10.00;99.90
7240;DHT22;3661;53.288;10.458;2024-02-16T04:41:34;10.00;99.90
7240;DHT22;3661;53.288;10.458;2024-02-16T04:44:06;10.00;99.90
7240;DHT22;3661;53.288;10.458;2024-02-16T04:46:38;10.00;99.90
7240;DHT22;3661;53.288;10.458;2024-02-16T04:49:10;10.00;99.90
7240;DHT22;3661;53.288;10.458;2024-02-16T04:51:43;10.00;99.90
7240;DHT22;3661;53.288;10.458;2024-02-16T04:54:15;10.00;99.90
7240;DHT22;3661;53.288;10.458;2024-02-16T04:56:49;10.00;99.90
7240;DHT22;3661;53.288;10.458;2024-02-16T04:59:21;10.00;99.90
7240;DHT22;3661;53.288;10.458;2024-02-16T05:01:53;10.00;99.90
7240;DHT22;3661;53.288;10.458;2024-02-16T05:04:26;10.00;99.90
7240;DHT22;3661;53.288;10.458;2024-02-16T05:06:59;10.00;99.90
7240;DHT22;3661;53.288;10.458;2024-02-16T05:09:32;10.00;99.90
7240;DHT22;3661;53.288;10.458;2024-02-16T05:12:06;10.00;99.90
7240;DHT22;3661;53.288;10.458;2024-02-16T05:14:39;10.00;99.90
7240;DHT22;3661;53.288;10.458;2024-02-16T05:17:11;10.00;99.90
7240;DHT22;3661;53.288;10.458;2024-02-16T05:19:43;10.00;99.90
7240;DHT22;3661;53.288;10.458;2024-02-16T05:22:16;10.00;99.90
7240;DHT22;3661;53.288;10.458;2024-02-16T05:24:49;10.00;99.90
7240;DHT22;3661;53.288;10.458;2024-02-16T05:27:22;10.00;99.90
7240;DHT22;3661;53.288;10.458;2024-02-16T05:29:54;10.00;99.90
7240;DHT22;3661;53.288;10.458;2024-02-16T05:32:26;10.00;99.90
7240;DHT22;3661;53.288;10.458;2024-02-16T05:34:59;10.00;99.90
7240;DHT22;3661;53.288;10.458;2024-02-16T05:37:35;10.00;99.90
7240;DHT22;3661;53.288;10.458;2024-02-16T05:40:08;10.00;99.90
7240;DHT22;3661;53.288;10.458;2024-02-16T05:42:51;10.00;99.90
7240;DHT22;3661;53.288;10.458;2024-02-16T05:45:24;10.00;99.90
7240;DHT22;3661;53.288;10.458;2024-02-16T05:47:57;10.00;99.90
7240;DHT22;3661;53.288;10.458;2024-02-16T05:50:29;10.00;99.90
7240;DHT22;3661;53.288;10.458;2024-02-16T05:53:01;10.00;99.90
7240;DHT22;3661;53.288;10.458;2024-02-16T05:55:33;10.00;99.90
7240;DHT22;3661;53.288;10.458;2024-02-16T05:58:07;9.90;99.90
7240;DHT22;3661;53.288;10.458;2024-02-16T06:00:42;9.90;99.90
7240;DHT22;3661;53.288;10.458;2024-02-16T06:03:14;10.00;99.90
7240;DHT22;3661;53.288;10.458;2024-02-16T06:05:48;9.90;99.90
7240;DHT22;3661;53.288;10.458;2024-02-16T06:08:20;9.90;99.90
7240;DHT22;3661;53.288;10.458;2024-02-16T06:10:53;9.90;99.90
7240;DHT22;3661;53.288;10.458;2024-02-16T06:13:26;9.90;99.90
7240;DHT22;3661;53.288;10.458;2024-02-16T06:15:58;9.90;99.90
7240;DHT22;3661;53.288;10.458;2024-02-16T06:18:30;9.90;99.90
7240;DHT22;3661;53.288;10.458;2024-02-16T06:21:03;9.90;99.90
7240;DHT22;3661;53.288;10.458;2024-02-16T06:23:35;9.90;99.90
7240;DHT22;3661;53.288;10.458;2024-02-16T06:26:07;9.90;99.90
7240;DHT22;3661;53.288;10.458;2024-02-16T06:28:40;9.90;99.90
7240;DHT22;3661;53.288;10.458;2024-02-16T06:31:13;9.90;99.90
7240;DHT22;3661;53.288;10.458;2024-02-16T06:33:45;9.90;99.90
7240;DHT22;3661;53.288;10.458;2024-02-16T06:36:17;9.90;99.90
7240;DHT22;3661;53.288;10.458;2024-02-16T06:38:51;9.90;99.90
7240;DHT22;3661;53.288;10.458;2024-02-16T06:41:26;9.90;99.90
7240;DHT22;3661;53.288;10.458;2024-02-16T06:44:00;9.90;99.90
7240;DHT22;3661;53.288;10.458;2024-02-16T06:46:32;9.90;99.90
7240;DHT22;3661;53.288;10.458;2024-02-16T06:49:04;9.90;99.90
7240;DHT22;3661;53.288;10.458;2024-02-16T06:51:37;9.90;99.90
7240;DHT22;3661;53.288;10.458;2024-02-16T06:54:09;9.90;99.90
7240;DHT22;3661;53.288;10.458;2024-02-16T06:56:41;9.90;99.90
7240;DHT22;3661;53.288;10.458;2024-02-16T06:59:14;9.90;99.90
7240;DHT22;3661;53.288;10.458;2024-02-16T07:01:46;9.80;99.90
7240;DHT22;3661;53.288;10.458;2024-02-16T07:04:19;9.80;99.90
7240;DHT22;3661;53.288;10.458;2024-02-16T07:06:51;9.80;99.90
7240;DHT22;3661;53.288;10.458;2024-02-16T07:09:23;9.80;99.90
7240;DHT22;3661;53.288;10.458;2024-02-16T07:11:55;9.80;99.90
7240;DHT22;3661;53.288;10.458;2024-02-16T07:14:30;9.80;99.90
7240;DHT22;3661;53.288;10.458;2024-02-16T07:17:03;9.80;99.90
7240;DHT22;3661;53.288;10.458;2024-02-16T07:19:38;9.90;99.90
7240;DHT22;3661;53.288;10.458;2024-02-16T07:22:10;9.80;99.90
7240;DHT22;3661;53.288;10.458;2024-02-16T07:24:43;9.80;99.90
7240;DHT22;3661;53.288;10.458;2024-02-16T07:27:15;9.80;99.90
7240;DHT22;3661;53.288;10.458;2024-02-16T07:29:49;9.80;99.90
7240;DHT22;3661;53.288;10.458;2024-02-16T07:32:21;9.80;99.90
7240;DHT22;3661;53.288;10.458;2024-02-16T07:34:53;9.80;99.90
7240;DHT22;3661;53.288;10.458;2024-02-16T07:37:26;9.80;99.90
7240;DHT22;3661;53.288;10.458;2024-02-16T07:39:58;9.80;99.90
7240;DHT22;3661;53.288;10.458;2024-02-16T07:42:30;9.80;99.90
7240;DHT22;3661;53.288;10.458;2024-02-16T07:45:04;9.80;99.90
7240;DHT22;3661;53.288;10.458;2024-02-16T07:47:36;9.80;99.90
7240;DHT22;3661;53.288;10.458;2024-02-16T07:50:09;9.90;99.90
7240;DHT22;3661;53.288;10.458;2024-02-16T07:52:42;9.90;99.90
7240;DHT22;3661;53.288;10.458;2024-02-16T07:55:15;9.90;99.90
7240;DHT22;3661;53.288;10.458;2024-02-16T07:57:48;9.90;99.90
7240;DHT22;3661;53.288;10.458;2024-02-16T08:00:22;9.90;99.90
7240;DHT22;3661;53.288;10.458;2024-02-16T08:02:54;9.90;99.90
7240;DHT22;3661;53.288;10.458;2024-02-16T08:05:26;9.90;99.90
7240;DHT22;3661;53.288;10.458;2024-02-16T08:07:58;10.00;99.90
7240;DHT22;3661;53.288;10.458;2024-02-16T08:10:31;10.00;99.90
7240;DHT22;3661;53.288;10.458;2024-02-16T08:13:03;10.10;99.90
7240;DHT22;3661;53.288;10.458;2024-02-16T08:15:36;10.10;99.90
7240;DHT22;3661;53.288;10.458;2024-02-16T08:18:08;10.20;99.90
7240;DHT22;3661;53.288;10.458;2024-02-16T08:20:42;10.20;99.90
7240;DHT22;3661;53.288;10.458;2024-02-16T08:23:14;10.30;99.90
7240;DHT22;3661;53.288;10.458;2024-02-16T08:25:46;10.30;99.90
7240;DHT22;3661;53.288;10.458;2024-02-16T08:28:18;10.40;99.90
7240;DHT22;3661;53.288;10.458;2024-02-16T08:30:52;10.50;99.90
7240;DHT22;3661;53.288;10.458;2024-02-16T08:33:24;10.50;99.90
7240;DHT22;3661;53.288;10.458;2024-02-16T08:35:57;10.60;99.90
7240;DHT22;3661;53.288;10.458;2024-02-16T08:38:30;10.70;99.90
7240;DHT22;3661;53.288;10.458;2024-02-16T08:41:02;10.70;99.90
7240;DHT22;3661;53.288;10.458;2024-02-16T08:43:34;10.80;99.90
7240;DHT22;3661;53.288;10.458;2024-02-16T08:46:07;10.90;99.90
7240;DHT22;3661;53.288;10.458;2024-02-16T08:48:40;11.00;99.90
7240;DHT22;3661;53.288;10.458;2024-02-16T08:51:12;11.00;99.90
7240;DHT22;3661;53.288;10.458;2024-02-16T08:53:45;11.10;99.90
7240;DHT22;3661;53.288;10.458;2024-02-16T08:56:17;11.10;99.90
7240;DHT22;3661;53.288;10.458;2024-02-16T08:58:49;11.20;99.90
7240;DHT22;3661;53.288;10.458;2024-02-16T09:01:31;11.20;99.90
7240;DHT22;3661;53.288;10.458;2024-02-16T09:04:03;11.30;99.90
7240;DHT22;3661;53.288;10.458;2024-02-16T09:06:36;11.30;99.90
7240;DHT22;3661;53.288;10.458;2024-02-16T09:09:09;11.40;99.90
7240;DHT22;3661;53.288;10.458;2024-02-16T09:11:42;11.50;99.90
7240;DHT22;3661;53.288;10.458;2024-02-16T09:14:14;11.50;99.90
7240;DHT22;3661;53.288;10.458;2024-02-16T09:16:50;11.60;99.90
7240;DHT22;3661;53.288;10.458;2024-02-16T09:19:23;11.60;99.90
7240;DHT22;3661;53.288;10.458;2024-02-16T09:21:55;11.70;99.90
7240;DHT22;3661;53.288;10.458;2024-02-16T09:24:29;11.70;99.90
7240;DHT22;3661;53.288;10.458;2024-02-16T09:27:01;11.70;99.90
7240;DHT22;3661;53.288;10.458;2024-02-16T09:29:34;11.80;99.90
7240;DHT22;3661;53.288;10.458;2024-02-16T09:32:09;11.80;99.90
7240;DHT22;3661;53.288;10.458;2024-02-16T09:34:42;11.90;99.90
7240;DHT22;3661;53.288;10.458;2024-02-16T09:37:14;12.00;99.90
7240;DHT22;3661;53.288;10.458;2024-02-16T09:39:47;12.00;99.90
7240;DHT22;3661;53.288;10.458;2024-02-16T09:42:19;12.10;99.90
7240;DHT22;3661;53.288;10.458;2024-02-16T09:44:54;12.10;99.90
7240;DHT22;3661;53.288;10.458;2024-02-16T09:47:29;12.20;99.90
7240;DHT22;3661;53.288;10.458;2024-02-16T09:50:04;12.20;99.90
7240;DHT22;3661;53.288;10.458;2024-02-16T09:52:37;12.30;99.90
7240;DHT22;3661;53.288;10.458;2024-02-16T09:55:12;12.30;99.90
7240;DHT22;3661;53.288;10.458;2024-02-16T09:57:44;12.40;99.90
7240;DHT22;3661;53.288;10.458;2024-02-16T10:00:17;12.40;99.90
7240;DHT22;3661;53.288;10.458;2024-02-16T10:02:50;12.50;99.90
7240;DHT22;3661;53.288;10.458;2024-02-16T10:05:22;12.60;99.90
7240;DHT22;3661;53.288;10.458;2024-02-16T10:07:56;12.60;99.90
7240;DHT22;3661;53.288;10.458;2024-02-16T10:10:28;12.70;99.90
7240;DHT22;3661;53.288;10.458;2024-02-16T10:13:03;12.70;99.90
7240;DHT22;3661;53.288;10.458;2024-02-16T10:15:36;12.70;99.90
7240;DHT22;3661;53.288;10.458;2024-02-16T10:18:09;12.80;99.90
7240;DHT22;3661;53.288;10.458;2024-02-16T10:20:44;12.80;99.90
7240;DHT22;3661;53.288;10.458;2024-02-16T10:23:17;12.90;99.90
7240;DHT22;3661;53.288;10.458;2024-02-16T10:25:49;12.90;99.90
7240;DHT22;3661;53.288;10.458;2024-02-16T10:28:21;13.00;99.90
7240;DHT22;3661;53.288;10.458;2024-02-16T10:30:59;13.10;99.90
7240;DHT22;3661;53.288;10.458;2024-02-16T10:33:34;13.10;99.90
7240;DHT22;3661;53.288;10.458;2024-02-16T10:36:07;13.20;99.90
7240;DHT22;3661;53.288;10.458;2024-02-16T10:38:41;13.20;99.90
7240;DHT22;3661;53.288;10.458;2024-02-16T10:41:14;13.30;99.90
7240;DHT22;3661;53.288;10.458;2024-02-16T10:43:50;13.40;99.90
7240;DHT22;3661;53.288;10.458;2024-02-16T10:46:23;13.50;99.90
7240;DHT22;3661;53.288;10.458;2024-02-16T10:48:57;13.60;99.90
7240;DHT22;3661;53.288;10.458;2024-02-16T10:51:33;13.60;99.90
7240;DHT22;3661;53.288;10.458;2024-02-16T10:54:08;13.80;99.90
7240;DHT22;3661;53.288;10.458;2024-02-16T10:56:40;13.90;99.90
7240;DHT22;3661;53.288;10.458;2024-02-16T10:59:12;14.00;99.90
7240;DHT22;3661;53.288;10.458;2024-02-16T11:01:45;14.10;99.90
7240;DHT22;3661;53.288;10.458;2024-02-16T11:04:18;14.20;99.90
7240;DHT22;3661;53.288;10.458;2024-02-16T11:06:52;14.30;99.90
7240;DHT22;3661;53.288;10.458;2024-02-16T11:09:27;14.40;99.90
7240;DHT22;3661;53.288;10.458;2024-02-16T11:12:00;14.50;99.90
7240;DHT22;3661;53.288;10.458;2024-02-16T11:14:41;14.50;99.90
7240;DHT22;3661;53.288;10.458;2024-02-16T11:17:15;14.60;99.90
7240;DHT22;3661;53.288;10.458;2024-02-16T11:19:49;14.60;99.90
7240;DHT22;3661;53.288;10.458;2024-02-16T11:22:22;14.70;99.90
7240;DHT22;3661;53.288;10.458;2024-02-16T11:24:54;14.70;99.90
7240;DHT22;3661;53.288;10.458;2024-02-16T11:27:27;14.70;99.90
7240;DHT22;3661;53.288;10.458;2024-02-16T11:30:05;14.80;99.90
7240;DHT22;3661;53.288;10.458;2024-02-16T11:32:38;14.80;99.90
7240;DHT22;3661;53.288;10.458;2024-02-16T11:35:13;14.80;99.90
7240;DHT22;3661;53.288;10.458;2024-02-16T11:37:47;14.90;99.90
7240;DHT22;3661;53.288;10.458;2024-02-16T11:40:19;14.90;99.90
7240;DHT22;3661;53.288;10.458;2024-02-16T11:42:58;15.00;99.90
7240;DHT22;3661;53.288;10.458;2024-02-16T11:45:33;15.00;99.90
7240;DHT22;3661;53.288;10.458;2024-02-16T11:48:07;15.00;99.90
7240;DHT22;3661;53.288;10.458;2024-02-16T11:50:41;15.00;99.90
7240;DHT22;3661;53.288;10.458;2024-02-16T11:53:19;15.10;99.90
7240;DHT22;3661;53.288;10.458;2024-02-16T11:55:51;15.10;99.90
7240;DHT22;3661;53.288;10.458;2024-02-16T11:58:23;15.10;99.90
7240;DHT22;3661;53.288;10.458;2024-02-16T12:00:56;15.10;99.90
7240;DHT22;3661;53.288;10.458;2024-02-16T12:03:30;15.20;99.90
7240;DHT22;3661;53.288;10.458;2024-02-16T12:06:07;15.20;99.90
7240;DHT22;3661;53.288;10.458;2024-02-16T12:08:39;15.20;99.90
7240;DHT22;3661;53.288;10.458;2024-02-16T12:11:11;15.20;99.90
7240;DHT22;3661;53.288;10.458;2024-02-16T12:13:45;15.20;99.90
7240;DHT22;3661;53.288;10.458;2024-02-16T12:16:18;15.20;99.90
7240;DHT22;3661;53.288;10.458;2024-02-16T12:18:51;15.30;99.90
7240;DHT22;3661;53.288;10.458;2024-02-16T12:21:35;15.30;99.90
7240;DHT22;3661;53.288;10.458;2024-02-16T12:24:07;15.30;99.90
7240;DHT22;3661;53.288;10.458;2024-02-16T12:26:39;15.30;99.90
7240;DHT22;3661;53.288;10.458;2024-02-16T12:29:12;15.30;99.90
7240;DHT22;3661;53.288;10.458;2024-02-16T12:31:45;15.40;99.90
7240;DHT22;3661;53.288;10.458;2024-02-16T12:34:18;15.30;99.90
7240;DHT22;3661;53.288;10.458;2024-02-16T12:36:52;15.40;99.90
7240;DHT22;3661;53.288;10.458;2024-02-16T12:39:24;15.40;99.90
7240;DHT22;3661;53.288;10.458;2024-02-16T12:41:57;15.40;99.90
7240;DHT22;3661;53.288;10.458;2024-02-16T12:44:29;15.40;99.90
7240;DHT22;3661;53.288;10.458;2024-02-16T12:47:01;15.50;99.90
7240;DHT22;3661;53.288;10.458;2024-02-16T12:49:34;15.50;99.90
7240;DHT22;3661;53.288;10.458;2024-02-16T12:52:08;15.50;99.90
7240;DHT22;3661;53.288;10.458;2024-02-16T12:54:40;15.50;99.90
7240;DHT22;3661;53.288;10.458;2024-02-16T12:57:12;15.50;99.90
7240;DHT22;3661;53.288;10.458;2024-02-16T12:59:45;15.50;99.90
7240;DHT22;3661;53.288;10.458;2024-02-16T13:02:20;15.50;99.90
7240;DHT22;3661;53.288;10.458;2024-02-16T13:04:52;15.50;99.90
7240;DHT22;3661;53.288;10.458;2024-02-16T13:07:26;15.50;99.90
7240;DHT22;3661;53.288;10.458;2024-02-16T13:09:58;15.50;99.90
7240;DHT22;3661;53.288;10.458;2024-02-16T13:12:30;15.50;99.90
7240;DHT22;3661;53.288;10.458;2024-02-16T13:15:03;15.50;99.90
7240;DHT22;3661;53.288;10.458;2024-02-16T13:17:35;15.50;99.90
7240;DHT22;3661;53.288;10.458;2024-02-16T13:20:08;15.50;99.90
7240;DHT22;3661;53.288;10.458;2024-02-16T13:22:42;15.50;99.90
7240;DHT22;3661;53.288;10.458;2024-02-16T13:25:15;15.50;99.90
7240;DHT22;3661;53.288;10.458;2024-02-16T13:27:47;15.50;99.90
7240;DHT22;3661;53.288;10.458;2024-02-16T13:30:19;15.50;99.90
7240;DHT22;3661;53.288;10.458;2024-02-16T13:32:51;15.50;99.90
7240;DHT22;3661;53.288;10.458;2024-02-16T13:35:23;15.40;99.90
7240;DHT22;3661;53.288;10.458;2024-02-16T13:37:58;15.40;99.90
7240;DHT22;3661;53.288;10.458;2024-02-16T13:40:30;15.40;99.90
7240;DHT22;3661;53.288;10.458;2024-02-16T13:43:04;15.40;99.90
7240;DHT22;3661;53.288;10.458;2024-02-16T13:45:50;15.40;99.90
7240;DHT22;3661;53.288;10.458;2024-02-16T13:48:22;15.40;99.90
7240;DHT22;3661;53.288;10.458;2024-02-16T13:50:55;15.40;99.90
7240;DHT22;3661;53.288;10.458;2024-02-16T13:53:29;15.40;99.90
7240;DHT22;3661;53.288;10.458;2024-02-16T13:56:02;15.30;99.90
7240;DHT22;3661;53.288;10.458;2024-02-16T13:58:35;15.30;99.90
7240;DHT22;3661;53.288;10.458;2024-02-16T14:01:07;15.30;99.90
7240;DHT22;3661;53.288;10.458;2024-02-16T14:03:39;15.30;99.90
7240;DHT22;3661;53.288;10.458;2024-02-16T14:06:12;15.30;99.90
7240;DHT22;3661;53.288;10.458;2024-02-16T14:08:45;15.30;99.90
7240;DHT22;3661;53.288;10.458;2024-02-16T14:11:18;15.30;99.90
7240;DHT22;3661;53.288;10.458;2024-02-16T14:13:52;15.20;99.90
7240;DHT22;3661;53.288;10.458;2024-02-16T14:16:25;15.20;99.90
7240;DHT22;3661;53.288;10.458;2024-02-16T14:18:57;15.20;99.90
7240;DHT22;3661;53.288;10.458;2024-02-16T14:21:30;15.20;99.90
7240;DHT22;3661;53.288;10.458;2024-02-16T14:24:07;15.10;99.90
7240;DHT22;3661;53.288;10.458;2024-02-16T14:26:42;15.10;99.90
7240;DHT22;3661;53.288;10.458;2024-02-16T14:29:14;15.10;99.90
7240;DHT22;3661;53.288;10.458;2024-02-16T14:31:46;15.10;99.90
7240;DHT22;3661;53.288;10.458;2024-02-16T14:34:19;15.00;99.90
7240;DHT22;3661;53.288;10.458;2024-02-16T14:36:52;15.00;99.90
7240;DHT22;3661;53.288;10.458;2024-02-16T14:39:25;15.00;99.90
7240;DHT22;3661;53.288;10.458;2024-02-16T14:41:57;14.90;99.90
7240;DHT22;3661;53.288;10.458;2024-02-16T14:44:29;14.90;99.90
7240;DHT22;3661;53.288;10.458;2024-02-16T14:47:01;14.80;99.90
7240;DHT22;3661;53.288;10.458;2024-02-16T14:49:33;14.80;99.90
7240;DHT22;3661;53.288;10.458;2024-02-16T14:52:07;14.80;99.90
7240;DHT22;3661;53.288;10.458;2024-02-16T14:54:41;14.70;99.90
7240;DHT22;3661;53.288;10.458;2024-02-16T14:57:13;14.70;99.90
7240;DHT22;3661;53.288;10.458;2024-02-16T14:59:50;14.60;99.90
7240;DHT22;3661;53.288;10.458;2024-02-16T15:02:26;14.60;99.90
7240;DHT22;3661;53.288;10.458;2024-02-16T15:04:58;14.60;99.90
7240;DHT22;3661;53.288;10.458;2024-02-16T15:07:30;14.50;99.90
7240;DHT22;3661;53.288;10.458;2024-02-16T15:10:05;14.50;99.90
7240;DHT22;3661;53.288;10.458;2024-02-16T15:12:37;14.50;99.90
7240;DHT22;3661;53.288;10.458;2024-02-16T15:15:13;14.40;99.90
7240;DHT22;3661;53.288;10.458;2024-02-16T15:17:46;14.40;99.90
7240;DHT22;3661;53.288;10.458;2024-02-16T15:20:18;14.30;99.90
7240;DHT22;3661;53.288;10.458;2024-02-16T15:22:53;14.30;99.90
7240;DHT22;3661;53.288;10.458;2024-02-16T15:25:26;14.30;99.90
7240;DHT22;3661;53.288;10.458;2024-02-16T15:27:59;14.30;99.90
7240;DHT22;3661;53.288;10.458;2024-02-16T15:30:32;14.20;99.90
7240;DHT22;3661;53.288;10.458;2024-02-16T15:33:04;14.20;99.90
7240;DHT22;3661;53.288;10.458;2024-02-16T15:35:36;14.20;99.90
7240;DHT22;3661;53.288;10.458;2024-02-16T15:38:08;14.20;99.90
7240;DHT22;3661;53.288;10.458;2024-02-16T15:40:42;14.10;99.90
7240;DHT22;3661;53.288;10.458;2024-02-16T15:43:14;14.10;99.90
7240;DHT22;3661;53.288;10.458;2024-02-16T15:45:46;14.10;99.90
7240;DHT22;3661;53.288;10.458;2024-02-16T15:48:20;14.00;99.90
7240;DHT22;3661;53.288;10.458;2024-02-16T15:50:52;14.00;99.90
7240;DHT22;3661;53.288;10.458;2024-02-16T15:53:25;14.00;99.90
7240;DHT22;3661;53.288;10.458;2024-02-16T15:55:59;14.00;99.90
7240;DHT22;3661;53.288;10.458;2024-02-16T15:58:33;14.00;99.90
7240;DHT22;3661;53.288;10.458;2024-02-16T16:01:05;13.90;99.90
7240;DHT22;3661;53.288;10.458;2024-02-16T16:03:37;13.90;99.90
7240;DHT22;3661;53.288;10.458;2024-02-16T16:06:10;13.90;99.90
7240;DHT22;3661;53.288;10.458;2024-02-16T16:08:43;13.90;99.90
7240;DHT22;3661;53.288;10.458;2024-02-16T16:11:17;13.90;99.90
7240;DHT22;3661;53.288;10.458;2024-02-16T16:13:49;13.80;99.90
7240;DHT22;3661;53.288;10.458;2024-02-16T16:16:21;13.80;99.90
7240;DHT22;3661;53.288;10.458;2024-02-16T16:18:53;13.80;99.90
7240;DHT22;3661;53.288;10.458;2024-02-16T16:21:28;13.80;99.90
7240;DHT22;3661;53.288;10.458;2024-02-16T16:24:00;13.70;99.90